Tiempo atmosférico en la estación meteorológica de Reinosa, Cantabria (875 m.)



Fecha
DESCASC
Temp. máxima en grados centígrados (hora)
DESCASC
Temp. mínima en grados centígrados (hora)
DESCASC
Temp. media en grados centígrados
DESCASC
Racha de viento máxima en m/sg (hora)
DESCASC
Velocidad máxima media en intervalos de 10 minutos(hora)
DESCASC
Precipitaciones diarias en mm
DESCASC
Precipitaciones de 00:00 a 06:00 en mm
DESCASC
Precipitaciones de 06:00 a 12:00 en mm
DESCASC
Precipitaciones de 12:00 a 18:00 en mm
DESCASC
Precipitaciones de 18:00 a 24:00 en mm
DESCASC
22-11-2020 16.1 (14:30) -4.3 (07:40) 5.9 3.89 (15:10) 2.5 (15:10) 0 0 0 0 0
21-11-2020 15.3 (14:10) -2.6 (06:30) 6.4 3.61 (15:40) 2.22 (15:40) 0 0 0 0 0
20-11-2020 10.6 (15:00) -0.7 (23:50) 5 7.22 (16:30) 3.89 (16:20) 0 0 0 0 0
19-11-2020 11.6 (11:20) 4.6 (00:00) 8.1 7.5 (15:40) 4.72 (04:00) 0 0 0 0 0
18-11-2020 18.1 (14:00) 4.8 (00:00) 11.5 11.11 (02:10) 7.22 (01:50) 0 0 0 0 0
17-11-2020 18.4 (14:10) -1.5 (-00:0) 8.4 10.28 (19:40) 6.94 (19:50) 0 0 0 0 0
16-11-2020 14.5 (14:50) 1.1 (00:00) 7.8 5 (13:10) 3.33 (13:20) 0 0 0 0 0
15-11-2020 15.2 (12:50) 8.4 (00:00) 11.8 16.67 (06:40) 8.33 (06:40) 1.5 0 0 0 1.5
14-11-2020 14.6 (13:30) 8.5 (00:00) 11.6 14.72 (14:00) 8.06 (17:10) 0 0 0 0 0
13-11-2020 16.5 (15:10) 2.1 (00:00) 9.3 13.06 (22:30) 7.22 (22:20) 0 0 0 0 0
12-11-2020 16.1 (15:50) 4.2 (00:00) 10.2 9.17 (14:20) 5.28 (19:40) 0 0 0 0 0
11-11-2020 14.5 (15:10) -0.2 (00:00) 7.1 14.72 (11:40) 8.06 (09:10) 1.8 0 0 1.8 0
10-11-2020 12.3 (15:00) 0.6 (00:00) 6.5 6.67 (14:30) 4.72 (15:40) 0 0 0 0 0
09-11-2020 15.1 (15:40) 5.3 (00:00) 10.2 10.28 (00:50) 5.28 (01:00) 0 0 0 0 0
08-11-2020 14 (13:00) 9.6 (00:00) 11.8 17.22 (18:40) 8.61 (14:00) 0.2 0 0 0.2 0
07-11-2020 14.8 (13:20) 10.6 (00:00) 12.7 18.89 (02:10) 10.83 (02:00) 0 0 0 0 0
06-11-2020 14.9 (14:10) 9.6 (00:00) 12.3 26.39 (22:20) 11.11 (22:20) 0 0 0 0 0
05-11-2020 14.3 (15:00) 4.5 (00:00) 9.4 6.94 (15:00) 4.72 (14:50) 0 0 0 0 0
04-11-2020 8.1 (14:20) 3 (00:00) 5.6 8.33 (15:50) 3.61 (11:00) 0 0 0 0 0
03-11-2020 9.8 (12:40) 4 (00:00) 6.9 10.83 (07:30) 7.22 (07:30) 0 0 0 0 0
02-11-2020 20.2 (14:00) 8.2 (00:00) 14.2 15 (00:30) 8.33 (00:50) 0.6 0 0 0 0.6
01-11-2020 18.7 (14:20) 10.2 (00:00) 14.5 13.06 (23:50) 6.67 (21:30) 0 0 0 0 0
31-10-2020 17 (11:50) 7.9 (00:00) 12.5 14.44 (12:30) 7.5 (12:30) 0 0 0 0 0
30-10-2020 18.4 (14:50) -1.4 (-00:0) 8.5 11.94 (21:50) 7.22 (17:50) 0 0 0 0 0
29-10-2020 17.7 (15:00) 1.3 (00:00) 9.5 8.61 (13:30) 5 (13:30) 0 0 0 0 0
28-10-2020 14.6 (13:30) 3.2 (00:00) 8.9 9.44 (01:50) 5 (00:30) 0 0 0 0 0
27-10-2020 13.4 (15:30) 2.1 (00:00) 7.7 12.78 (14:50) 7.22 (14:50) 0 0 0 0 0

Gráficas

Temp. máximas Temp. mínimas Temp. medias Precipitaciones Rachas de viento máximas Velocidades máximas media en intervalos de 10 minutos

Datos horarios

Fecha y hora oficial Temperatura (ºC) Velocidad del viento (km/h) Dirección del viento Racha (km/h) Dirección de racha Precipitación (mm) Presión (hPa) Tendencia (hPa) Humedad (%)
2020-11-25 23:00:00 5.8 6 Sudeste 12 Sudeste 0 911.4 0.2 84
2020-11-25 22:00:00 5.2 5 Este 15 Sudeste 0 911.4 0.2 83
2020-11-25 21:00:00 6.1 10 Sudeste 18 Sudeste 0 911.4 0.4 78
2020-11-25 20:00:00 5.8 7 Sur 17 Sur 0 911.2 0.4 74
2020-11-25 19:00:00 7.3 12 Sur 19 Sur 0 911.2 0.2 70
2020-11-25 18:00:00 7.6 10 Sudeste 14 Sudeste 0 911 -0.4 71
2020-11-25 17:00:00 9.2 5 Sudoeste 19 Sudoeste 0 910.8 -0.9 64
2020-11-25 16:00:00 10 6 Sudoeste 17 Sur 0 911 -1.6 62
2020-11-25 15:00:00 9.8 7 Sudoeste 26 Sudoeste 0 911.4 -- 62
2020-11-25 14:00:00 9.4 13 Sudoeste 68 Sudoeste 0 911.7 -- 65
2020-11-25 13:00:00 9 11 Sudoeste -- -- -- 912.6 -1.5 72
2020-11-25 12:00:00 -- -- -- -- -- -- -- -- --
2020-11-25 11:00:00 -- -- -- -- -- -- -- -- --
2020-11-25 10:00:00 6.5 16 Sur 28 Sur 0 914.1 -- 84
2020-11-25 09:00:00 6.1 14 Sur 28 Sudoeste 0 913.9 -- 83
2020-11-25 08:00:00 6.8 15 Sudoeste 39 Sudoeste 0 913.7 -- 69
2020-11-25 07:00:00 6.9 14 Sudoeste 39 Sur 0 913.7 -- 72
2020-11-25 06:00:00 7.5 14 Sur 27 Sudeste 0 913.8 -- 78
2020-11-25 05:00:00 6.6 12 Sudeste 21 Sudeste 0 913.9 -- 84
2020-11-25 04:00:00 7.7 10 Sudeste 18 Sudeste 0 914.2 -- 77
2020-11-25 03:00:00 7.9 8 Sur 23 Sudoeste 0 914.4 -- 78
2020-11-25 02:00:00 8.2 10 Sudoeste 30 Sur 0 914.7 -- 78
2020-11-25 01:00:00 8.5 10 Sudoeste 24 Sudoeste 0 915.4 -- 73
2020-11-25 00:00:00 8.6 5 Sur 33 Sudoeste 0 915.7 -- 68
2020-11-24 23:00:00 8.3 9 Sur 30 Sur 0 915.9 -- 75
2020-11-24 22:00:00 8.2 12 Sudeste 22 Sur 0 916.6 -- 76
2020-11-24 21:00:00 8.6 13 Sur -- -- -- 917.1 -- 69
2020-11-24 20:00:00 8.5 18 Sur 35 Sur 0 917 -- 75
2020-11-24 19:00:00 8.5 23 Sur 44 Sur 0 917.3 -- 70
2020-11-24 18:00:00 9.1 21 Sur 31 Sur 0 917.2 -- 67
2020-11-24 17:00:00 10.3 14 Sur 22 Sur 0 917 -- 57
2020-11-24 16:00:00 12.6 6 Sur 41 Sudeste 0 917.1 -- 42
2020-11-24 15:00:00 11.3 20 Sur 40 Sur 0 917.4 -- 49
2020-11-24 14:00:00 11.8 26 Sur 43 Sur 0 918.3 -- 43
2020-11-24 13:00:00 11.5 13 Sur 28 Sudeste 0 919.1 -- 45
2020-11-24 12:00:00 9.7 2 Sudoeste 7 Este 0 920.7 -- 47
2020-11-24 11:00:00 7.8 0 Calma 5 Noroeste 0 921.6 -- 49
2020-11-24 10:00:00 1.6 2 Noroeste 9 Oeste 0 921.7 -- 73
2020-11-24 09:00:00 -1.5 6 Noroeste 9 Noroeste 0 921.4 -- 84
2020-11-24 08:00:00 -2.3 4 Oeste 8 Noroeste 0 921.3 -- 82
2020-11-24 07:00:00 -1.9 5 Oeste 12 Oeste 0 921.2 -- 84
2020-11-24 06:00:00 -1.4 4 Oeste 10 Oeste 0 921.3 -- 81
2020-11-24 05:00:00 -0.3 5 Norte 8 Norte 0 921.4 -- 85
2020-11-24 04:00:00 -1.4 5 Noroeste 9 Noroeste 0 921.8 -- 90
2020-11-24 03:00:00 -1.7 5 Noroeste 9 Noroeste 0 922.4 -- 91
2020-11-24 02:00:00 -0.6 0 Calma 5 Oeste 0 923 -- 90
2020-11-24 01:00:00 -0.4 0 Calma 3 Noroeste 0 924 -- 88
2020-11-24 00:00:00 1 2 Noroeste 6 Sudoeste 0 924.3 -- 87
2020-11-23 23:00:00 0.9 3 Noroeste 4 Noroeste 0 924.8 -- 84
2020-11-23 22:00:00 3.1 0 Calma 6 Oeste 0 925.1 -- 76
2020-11-23 21:00:00 3.7 5 Sudoeste 10 Sudoeste 0 925.3 -- 73
2020-11-23 20:00:00 4.6 3 Sudoeste 9 Sudoeste 0 925.6 -- 71
2020-11-23 19:00:00 5.7 0 Calma 19 Noroeste 0 925.5 -- 65
2020-11-23 18:00:00 7.7 4 Noroeste 5 Noroeste 0 925.4 -- 54
2020-11-23 17:00:00 11.5 2 Oeste 8 Nordeste 0 925.4 -- 44
2020-11-23 16:00:00 13.4 6 Este 10 Nordeste 0 925.4 -- 40
2020-11-23 15:00:00 15.1 4 Nordeste 7 Este 0 925.4 -- 34
2020-11-23 14:00:00 14.9 5 Este 9 Este 0 926.2 -- 36
2020-11-23 13:00:00 14.2 4 Este 6 Este 0 926.8 -- 33
2020-11-23 12:00:00 14 0 Calma 3 Sudeste 0 927.5 -- 32
2020-11-23 11:00:00 9 2 Sudeste 4 Sudeste 0 927.9 -- 54
2020-11-23 10:00:00 3.6 0 Calma 4 Sudoeste 0 927.9 -- 68
2020-11-23 09:00:00 -1.7 0 Calma 7 Sudoeste 0 927.8 -- 77
2020-11-23 08:00:00 -2.6 0 Calma 23 Oeste 0 927.8 -- 84
2020-11-23 07:00:00 -2.7 5 Oeste 8 Oeste 0 927.4 -- 87
2020-11-23 06:00:00 -2.7 0 Calma 8 Sudoeste 0 927.5 -- 88
2020-11-23 05:00:00 -1.4 2 Sudoeste 8 Noroeste 0 927.4 -- 90
2020-11-23 04:00:00 -1.9 0 Calma 7 Sudoeste 0 927.8 -- 89
2020-11-23 03:00:00 -1 0 Calma 8 Noroeste 0 927.6 -- 91
2020-11-23 02:00:00 -0.9 2 Noroeste 7 Norte 0 927.7 -- 92
2020-11-23 01:00:00 -0.3 0 Calma 8 Norte 0 927.8 -- 92
2020-11-23 00:00:00 0 3 Oeste 9 Noroeste 0 927.7 -- 91
2020-11-22 23:00:00 0.9 0 Calma 11 Noroeste 0 927.7 -- 91
2020-11-22 22:00:00 1.1 2 Oeste 5 Noroeste 0 927.8 -- 90
2020-11-22 21:00:00 2.3 3 Sudoeste 9 Oeste 0 927.7 -- 88
2020-11-22 20:00:00 3.2 0 Calma 8 Sudeste 0 927.3 -- 81
2020-11-22 19:00:00 7.6 5 Sur 10 Sur 0 927 -- 71
2020-11-22 18:00:00 8.2 0 Calma 13 Este 0 926.4 -- 64
2020-11-22 17:00:00 11.4 9 Este 14 Este 0 925.9 -- 51
2020-11-22 16:00:00 14 8 Este 14 Este 0 925.6 -- 41
2020-11-22 15:00:00 15.1 6 Sudeste 10 Este 0 925.7 -- 34
2020-11-22 14:00:00 15.4 0 Calma 5 Este 0 926.3 -- 33
2020-11-22 13:00:00 13 3 Este 7 Sudeste 0 926.6 -- 35
2020-11-22 12:00:00 11.4 2 Sudeste 5 Sudeste 0 927 -- 39
2020-11-22 11:00:00 9 0 Calma 5 Norte 0 927 -- 46
2020-11-22 10:00:00 3.8 0 Calma 7 Oeste 0 927.1 -- 70
2020-11-22 09:00:00 -2.2 3 Oeste 5 Oeste 0 927.2 -- 84
2020-11-22 08:00:00 -3.6 0 Calma 11 Oeste 0 926.9 -- 87
2020-11-22 07:00:00 -3 0 Calma 7 Oeste 0 926.7 -- 86
2020-11-22 06:00:00 -2.4 3 Oeste 9 Oeste 0 926.6 -- 82
2020-11-22 05:00:00 -2.1 2 Noroeste 9 Oeste 0 926.5 -- 84
2020-11-22 04:00:00 -2.6 6 Oeste 9 Oeste 0 926.3 -- 85
2020-11-22 03:00:00 -2.8 4 Oeste 7 Oeste 0 926.4 -- 82
2020-11-22 02:00:00 -1.8 0 Calma 7 Oeste 0 926.4 -- 81
2020-11-22 01:00:00 -2 0 Calma 6 Oeste 0 926.4 -- 78
2020-11-22 00:00:00 -2.1 4 Noroeste 6 Noroeste 0 926.6 -- 77
2020-11-21 23:00:00 -0.4 0 Calma 4 Sudoeste 0 926.5 -- 74
2020-11-21 22:00:00 0.6 5 Oeste 9 Oeste 0 926.9 -- 70
2020-11-21 21:00:00 1.9 4 Noroeste 11 Oeste 0 926.6 -- 61
2020-11-21 20:00:00 3.5 6 Oeste 10 Oeste 0 926.5 -- 54
2020-11-21 19:00:00 4.6 3 Oeste 49 Oeste 0 926.6 -- 51
2020-11-21 18:00:00 6.1 6 Oeste 7 Oeste 0 926.4 -- 39
2020-11-21 17:00:00 11.3 5 Nordeste 10 Nordeste 0 926.3 -- 28
2020-11-21 16:00:00 13.6 7 Este 13 Nordeste 0 926.2 -- 21
2020-11-21 15:00:00 14.8 6 Nordeste 11 Nordeste 0 926.5 -- 19
2020-11-21 14:00:00 14.9 2 Norte 9 Noroeste 0 927.1 -- 17
2020-11-21 13:00:00 13.8 3 Noroeste 9 Nordeste 0 928.1 -- 14
2020-11-21 12:00:00 12.7 0 Calma 6 Noroeste 0 928.7 -- 16
2020-11-21 11:00:00 10 0 Calma 5 Oeste 0 928.9 -- 43
2020-11-21 10:00:00 3.6 3 Noroeste 7 Noroeste 0 928.9 -- 68
2020-11-21 09:00:00 -0.5 3 Oeste 9 Sudoeste 0 929 -- 75
2020-11-21 08:00:00 -0.6 3 Sudoeste 40 Sudoeste 0 929 -- 78
2020-11-21 07:00:00 -1.8 4 Oeste 5 Oeste 0 928.9 -- 88
2020-11-21 06:00:00 -0.6 0 Calma 9 Oeste 0 928.7 -- 77
2020-11-21 05:00:00 1 4 Oeste 9 Sudoeste 0 929 -- 74
2020-11-21 04:00:00 0.6 4 Sudoeste 11 Sudoeste 0 929.2 -- 88
2020-11-21 03:00:00 0.3 5 Sudoeste 9 Sudoeste 0 929.8 -- 95
2020-11-21 02:00:00 1.6 4 Oeste 54 Oeste 0 930.5 -- 95
2020-11-21 01:00:00 2 5 Noroeste 10 Noroeste 0 930.9 -- 94
2020-11-21 00:00:00 0 4 Nordeste 8 Este 0 931 -- 93
2020-11-20 23:00:00 0.6 0 Calma 7 Sudoeste 0 931.2 -- 92
2020-11-20 22:00:00 0.3 2 Oeste 7 Noroeste 0 931.7 -- 92
2020-11-20 21:00:00 1.6 0 Calma 6 Oeste 0 931.5 -- 92
2020-11-20 20:00:00 2.5 5 Oeste 9 Oeste 0 931.8 -- 92
2020-11-20 19:00:00 3.6 0 Calma 5 Norte 0 931.9 -- 90
2020-11-20 18:00:00 5.5 4 Sur 18 Nordeste 0 931.3 -- 84
2020-11-20 17:00:00 7.4 13 Nordeste 26 Nordeste 0 931.4 -- 76
2020-11-20 16:00:00 9.6 9 Nordeste 18 Este 0 931.4 -- 58
2020-11-20 15:00:00 10.3 6 Este 12 Este 0 931.5 -- 55
2020-11-20 14:00:00 9.3 6 Este 15 Este 0 932.2 -- 58
2020-11-20 13:00:00 9.1 10 Nordeste 16 Nordeste 0 933.1 -- 62
2020-11-20 12:00:00 7.1 6 Nordeste 16 Nordeste 0 934.2 -- 67
2020-11-20 11:00:00 7.3 5 Nordeste 14 Noroeste 0 934.3 -- 67
2020-11-20 10:00:00 5.1 8 Noroeste 12 Noroeste 0 934.4 -- 78
2020-11-20 09:00:00 4.6 0 Calma 10 Nordeste 0 934.3 -- 82
2020-11-20 08:00:00 3.4 8 Noroeste 15 Noroeste 0 933.8 -- 85
2020-11-20 07:00:00 3.9 6 Noroeste 14 Noroeste 0 934.1 -- 85
2020-11-20 06:00:00 3.3 10 Noroeste 11 Noroeste 0 934 -- 89
2020-11-20 05:00:00 4.1 3 Noroeste 8 Nordeste 0 934.5 -- 87
2020-11-20 04:00:00 5.2 5 Este 15 Nordeste 0 934.5 -- 89
2020-11-20 03:00:00 5.1 9 Nordeste 17 Nordeste 0 934.7 -- 91
2020-11-20 02:00:00 5.2 2 Nordeste 15 Este 0 935 -- 91
2020-11-20 01:00:00 5.1 10 Nordeste 21 Nordeste 0 935.6 -- 92
2020-11-20 00:00:00 5.3 10 Nordeste 21 Nordeste 0 935.6 -- 92
2020-11-19 23:00:00 5.6 8 Este 14 Este 0 935.7 -- 93
2020-11-19 22:00:00 5.3 3 Sudeste 8 Sudeste 0 935.6 -- 92
2020-11-19 21:00:00 5.9 6 Este 12 Nordeste 0 935.5 -- 93
2020-11-19 20:00:00 6.4 6 Nordeste 17 Nordeste 0 935.4 -- 93
2020-11-19 19:00:00 6.2 6 Este 17 Este 0 934.9 -- 93
2020-11-19 18:00:00 6.5 4 Nordeste 17 Este 0 934.9 -- 91
2020-11-19 17:00:00 7.7 10 Nordeste 23 Nordeste 0 934.8 -- 90
2020-11-19 16:00:00 8.7 10 Nordeste 27 Nordeste 0 934.4 -- 88
2020-11-19 15:00:00 9.8 8 Nordeste 21 Nordeste 0 934.2 -- 84
2020-11-19 14:00:00 10.2 9 Nordeste 24 Este 0 933.5 -- 85
2020-11-19 13:00:00 10.4 10 Nordeste 21 Nordeste 0 934 -- 87
2020-11-19 12:00:00 9.8 12 Este 21 Este 0 934.8 -- 88
2020-11-19 11:00:00 10 7 Este 18 Este 0 934.2 -- 90
2020-11-19 10:00:00 10.3 8 Norte 21 Norte 0 934.5 -- 84
2020-11-19 09:00:00 10.3 15 Norte 25 Noroeste 0 934.1 -- 87
2020-11-19 08:00:00 10.2 6 Norte 14 Noroeste 0 933.1 -- 93
2020-11-19 07:00:00 9.8 3 Norte 22 Norte 0 932.1 -- 93
2020-11-19 06:00:00 10.9 14 Noroeste 21 Norte 0 931.9 -- 90
2020-11-19 05:00:00 11.2 10 Norte 21 Norte 0 931.5 -- 89
2020-11-19 04:00:00 10.7 17 Noroeste 23 Noroeste 0 931.2 -- 89
2020-11-19 03:00:00 6 2 Sur 7 Nordeste 0 930.5 -- 89
2020-11-19 02:00:00 5.6 0 Calma 9 Nordeste 0 930.2 -- 88
2020-11-19 01:00:00 5.6 4 Sudoeste 8 Sudoeste 0 930.1 -- 92
2020-11-19 00:00:00 6 2 Sur 13 Norte 0 930.1 -- 93
2020-11-18 23:00:00 5.6 3 Noroeste 10 Noroeste 0 929.6 -- 91
2020-11-18 22:00:00 5.6 3 Noroeste 9 Oeste 0 928.7 -- 90
2020-11-18 21:00:00 7.6 4 Sudoeste 8 Sudoeste 0 927.9 -- 91
2020-11-18 20:00:00 9.1 4 Oeste 9 Sur 0 927.3 -- 87
2020-11-18 19:00:00 10.7 4 Sur 15 Sudeste 0 926.6 -- 75
2020-11-18 18:00:00 14.5 10 Sur 22 Sudeste 0 925.6 -- 67
2020-11-18 17:00:00 15.9 11 Sudeste 22 Sur 0 925.5 -- 62
2020-11-18 16:00:00 17 13 Sur 26 Sur 0 925.2 -- 59
2020-11-18 15:00:00 17.6 15 Sur 31 Sur 0 925 -- 58
2020-11-18 14:00:00 17.9 6 Sur 23 Sudeste 0 925.5 -- 55
2020-11-18 13:00:00 16.5 19 Sudeste 29 Sudeste 0 925.8 -- 61
2020-11-18 12:00:00 15.2 15 Sudeste -- -- -- 926.1 -- 62
2020-11-18 11:00:00 15.5 0 Calma 21 Sur 0 926 -- 57
2020-11-18 10:00:00 11.4 3 Nordeste 9 Norte 0 925.4 -- 73
2020-11-18 09:00:00 6.9 4 Oeste 10 Noroeste 0 924.8 -- 86
2020-11-18 08:00:00 7.9 0 Calma 31 Sur 0 924.3 -- 74
2020-11-18 07:00:00 9.7 17 Sur 37 Sur 0 924.1 -- 71
2020-11-18 06:00:00 9.8 22 Sudeste 30 Sur 0 923.5 -- 65
2020-11-18 05:00:00 10.2 13 Sur 32 Sudeste 0 923.1 -- 61
2020-11-18 04:00:00 10.2 7 Sudeste 22 Sudeste 0 923.5 -- 60
2020-11-18 03:00:00 10.7 4 Este 40 Sur 0 923.8 -- 51
2020-11-18 02:00:00 9.7 20 Sur 35 Sudeste 0 924.1 -- 45
2020-11-18 01:00:00 11 15 Sur 28 Sur 0 924.2 -- 39
2020-11-18 00:00:00 7.1 3 Sudoeste 15 Sur 0 924.2 -- 70
2020-11-17 23:00:00 7.4 5 Oeste 23 Oeste 0 924.1 -- 67
2020-11-17 22:00:00 9.6 4 Oeste 33 Sur 0 924.3 -- 63
2020-11-17 21:00:00 10.6 23 Sur 34 Sudeste 0 923.9 -- 65
2020-11-17 20:00:00 11.6 21 Sur 37 Sur 0 924.2 -- 58
2020-11-17 19:00:00 13.4 8 Sur 24 Sudoeste 0 923.6 -- 46
2020-11-17 18:00:00 15.1 7 Sudeste 27 Sur 0 923.4 -- 43
2020-11-17 17:00:00 15.8 12 Sur 32 Sur 0 923.3 -- 48
2020-11-17 16:00:00 16.5 19 Sur 31 Sur 0 923 -- 50
2020-11-17 15:00:00 17.5 14 Sur 34 Sur 0 923.2 -- 48
2020-11-17 14:00:00 17.6 0 Calma 9 Noroeste 0 923.6 -- 46
2020-11-17 13:00:00 15.5 3 Norte 9 Norte 0 924.6 -- 52
2020-11-17 12:00:00 13.1 0 Calma 8 Noroeste 0 925.3 -- 56
2020-11-17 11:00:00 9.6 3 Noroeste 6 Noroeste 0 925.6 -- 70
2020-11-17 10:00:00 6.4 0 Calma 4 Oeste 0 926.1 -- 90
2020-11-17 09:00:00 1.3 3 Noroeste 6 Oeste 0 925.8 -- 93
2020-11-17 08:00:00 -0.1 0 Calma 6 Oeste 0 925.3 -- 93
2020-11-17 07:00:00 -0.9 3 Noroeste 8 Noroeste 0 925.2 -- 93
2020-11-17 06:00:00 -1.1 8 Noroeste 9 Noroeste 0 925.2 -- 93
2020-11-17 05:00:00 -0.4 4 Oeste 7 Oeste 0 925.1 -- 93
2020-11-17 04:00:00 0.4 3 Noroeste 5 Noroeste 0 925.7 -- 93
2020-11-17 03:00:00 1.1 4 Oeste 9 Oeste 0 925.7 -- 93
2020-11-17 02:00:00 1.2 3 Noroeste 6 Noroeste 0 926.1 -- 94
2020-11-17 01:00:00 2.7 5 Oeste 8 Oeste 0 926.1 -- 94
2020-11-17 00:00:00 3.2 2 Sudoeste 8 Oeste 0 926.3 -- 93
2020-11-16 23:00:00 1.2 4 Noroeste 7 Oeste 0 926.6 -- 93
2020-11-16 22:00:00 4.6 4 Sudoeste 6 Sudoeste 0 926.2 -- 93
2020-11-16 21:00:00 3.9 2 Oeste 5 Sudoeste 0 926 -- 93
2020-11-16 20:00:00 4.4 2 Oeste 6 Oeste 0 925.5 -- 93
2020-11-16 19:00:00 5.5 0 Calma 6 Este 0 925.2 -- 90
2020-11-16 18:00:00 8.8 5 Este 14 Este 0 924.9 -- 85
2020-11-16 17:00:00 10.7 9 Este 13 Este 0 924.6 -- 77
2020-11-16 16:00:00 13 7 Nordeste 18 Este 0 924.3 -- 61
2020-11-16 15:00:00 13.7 8 Sudeste 17 Sudeste 0 924.3 -- 52
2020-11-16 14:00:00 13 9 Sudeste 18 Sudeste 0 924.2 -- 57
2020-11-16 13:00:00 11.7 9 Sudeste 14 Este 0 924.7 -- 61
2020-11-16 12:00:00 11.8 0 Calma 10 Nordeste 0 925.1 -- 64
2020-11-16 11:00:00 9.1 4 Este 8 Este 0 925.5 -- 83
2020-11-16 10:00:00 8.2 6 Sudeste 10 Sudeste 0 924.8 -- 88
2020-11-16 09:00:00 8 5 Sudeste 9 Sudeste 0 924.4 -- 86
2020-11-16 08:00:00 7.7 5 Noroeste 12 Oeste 0 924.1 -- 92
2020-11-16 07:00:00 7.7 0 Calma 7 Sur 0 923.4 -- 93
2020-11-16 06:00:00 8 0 Calma 12 Oeste 0 922.8 -- 92
2020-11-16 05:00:00 8.2 2 Sur 14 Norte 0 922.7 -- 91
2020-11-16 04:00:00 8.4 6 Noroeste 14 Noroeste 0 922.6 -- 94
2020-11-16 03:00:00 8.4 4 Este 10 Este 0 921.8 -- 94
2020-11-16 02:00:00 8.6 0 Calma 4 Este 0 922.2 -- 94
2020-11-16 01:00:00 8.6 4 Nordeste 8 Este 0 921.6 -- 94
2020-11-16 00:00:00 8.4 4 Este 10 Este 0 921.5 -- 94
2020-11-15 23:00:00 8.8 4 Este 10 Este 0 921.1 -- 94
2020-11-15 22:00:00 8.9 8 Este 13 Este 0 920.5 -- 94
2020-11-15 21:00:00 9.5 3 Este 13 Este 0.4 919.6 -- 94
2020-11-15 20:00:00 10.1 5 Este 10 Este 0.9 919.1 -- 94
2020-11-15 19:00:00 10.3 4 Nordeste 21 Este 0.2 918 -- 94
2020-11-15 18:00:00 10.3 14 Este 29 Nordeste 0 917.3 -- 94
2020-11-15 17:00:00 11.4 14 Este 27 Este 0 916.6 -- 92
2020-11-15 16:00:00 14.5 14 Sudoeste 33 Sur 0 916 -- 82
2020-11-15 15:00:00 14.7 15 Sudoeste 36 Sudoeste 0 915.9 -- 78
2020-11-15 14:00:00 15 18 Sudoeste 36 Sudoeste 0 915.5 -- 76
2020-11-15 13:00:00 15.1 17 Sudoeste 36 Oeste 0 915.9 -- 73
2020-11-15 12:00:00 14.9 25 Oeste 53 Oeste 0 915.8 -- 75
2020-11-15 11:00:00 13.9 21 Oeste 49 Oeste 0 915.7 -- 83
2020-11-15 10:00:00 12.9 22 Sudoeste 58 Sudoeste 0 915.6 -- 87
2020-11-15 09:00:00 13 14 Sudoeste 46 Sudoeste 0 915 -- 83
2020-11-15 08:00:00 12.7 15 Oeste 46 Oeste 0 914.4 -- 83
2020-11-15 07:00:00 12.5 22 Sudoeste 60 Sudoeste 0 914.3 -- 83
2020-11-15 06:00:00 12.8 25 Sudoeste 59 Sudoeste 0 914 -- 78
2020-11-15 05:00:00 13 0 Calma 49 Noroeste 0 914.7 -- 78
2020-11-15 04:00:00 12.3 4 Sudoeste 29 Sudoeste 0 915.8 -- 85
2020-11-15 03:00:00 12.7 2 Sudoeste 31 Oeste 0 916.1 -- 77
2020-11-15 02:00:00 13.1 8 Sudoeste 39 Oeste 0 916.9 -- 74
2020-11-15 01:00:00 13.4 5 Sur 33 Oeste 0 917.1 -- 70
2020-11-15 00:00:00 13.3 10 Sudoeste 26 Sur 0 917.3 -- 68
2020-11-14 23:00:00 13.1 8 Noroeste 45 Oeste 0 917.4 -- 68
2020-11-14 22:00:00 13 15 Sur 40 Sur 0 917.2 -- 67
2020-11-14 21:00:00 11.6 21 Sur 39 Sur 0 917.6 -- 83
2020-11-14 20:00:00 11.9 10 Sur 29 Sur 0 917.7 -- 83
2020-11-14 19:00:00 11.8 16 Sudoeste 33 Sur 0 917.6 -- 78
2020-11-14 18:00:00 11.9 14 Sudoeste 51 Sudoeste 0 917 -- 73
2020-11-14 17:00:00 12.7 26 Sudoeste 50 Sudoeste 0 916.3 -- 69
2020-11-14 16:00:00 11.6 23 Sudoeste 47 Sudoeste 0 916.5 -- 78
2020-11-14 15:00:00 13.2 23 Sudoeste 53 Sur 0 916.5 -- 69
2020-11-14 14:00:00 13.9 27 Sudoeste 53 Sudoeste 0 916.9 -- 65
2020-11-14 13:00:00 12.8 21 Sur 43 Sur 0 917.2 -- 67
2020-11-14 12:00:00 12.2 22 Sur 42 Sur 0 917.9 -- 68
2020-11-14 11:00:00 13.2 16 Sudoeste 37 Sudoeste 0 917.8 -- 61
2020-11-14 10:00:00 11.1 12 Sur 27 Sudeste 0 917.9 -- 68
2020-11-14 09:00:00 10.6 18 Sudeste 42 Sur 0 917.6 -- 64
2020-11-14 08:00:00 10.5 20 Sur 40 Sudoeste 0 917 -- 61
2020-11-14 07:00:00 10.3 19 Sur 45 Sur 0 917.2 -- 62
2020-11-14 06:00:00 10.6 14 Sur 33 Sudoeste 0 917.1 -- 59
2020-11-14 05:00:00 10.6 20 Sur 38 Sur 0 916.8 -- 59
2020-11-14 04:00:00 11.3 24 Sur 49 Sudeste 0 916.9 -- 58
2020-11-14 03:00:00 10.9 17 Sur 28 Sur 0 917.4 -- 63
2020-11-14 02:00:00 10.3 4 Oeste 48 Oeste 0 918.2 -- 56
2020-11-14 01:00:00 9.6 13 Sur 41 Oeste 0 918.3 -- 61
2020-11-14 00:00:00 13.1 7 Sudoeste 36 Noroeste 0 918.5 -- 37
2020-11-13 23:00:00 14.1 13 Sudoeste 47 Oeste 0 918.6 -- 34
2020-11-13 22:00:00 11.4 14 Sudoeste 43 Sudoeste 0 918.2 -- 46
2020-11-13 21:00:00 12.1 17 Sudoeste 43 Sudoeste 0 918.2 -- 49
2020-11-13 20:00:00 12.1 17 Sudoeste 43 Sudoeste 0 918 -- 58
2020-11-13 19:00:00 12 13 Sur 25 Sudoeste 0 918.1 -- 65
2020-11-13 18:00:00 13.1 15 Sur 30 Sudoeste 0 917.8 -- 57
2020-11-13 17:00:00 14.4 12 Sur 24 Sur 0 917.7 -- 53
2020-11-13 16:00:00 15.3 15 Sur 31 Sudoeste 0 917.6 -- 52
2020-11-13 15:00:00 15.9 9 Sur 28 Sur 0 917.8 -- 50
2020-11-13 14:00:00 15.8 10 Sur 36 Sur 0 918.2 -- 44
2020-11-13 13:00:00 14.4 17 Sudoeste 40 Sur 0 918.9 -- 52
2020-11-13 12:00:00 13 21 Sur 35 Sur 0 919.3 -- 67
2020-11-13 11:00:00 11.3 12 Sudeste 20 Sudeste 0 919.8 -- 72
2020-11-13 10:00:00 8.9 7 Sur 16 Sudeste 0 920.3 -- 79
2020-11-13 09:00:00 3.9 3 Norte 6 Noroeste 0 920.3 -- 80
2020-11-13 08:00:00 2.9 3 Noroeste 5 Oeste 0 919.8 -- 78
2020-11-13 07:00:00 4.5 2 Oeste 9 Noroeste 0 919.8 -- 72
2020-11-13 06:00:00 6.4 4 Sudoeste 8 Oeste 0 919.2 -- 67
2020-11-13 05:00:00 8 3 Noroeste 14 Sudeste 0 918.7 -- 60
2020-11-13 04:00:00 10.3 5 Sudeste 29 Sur 0 918.6 -- 49
2020-11-13 03:00:00 10.9 17 Sur 36 Sur 0 918.4 -- 41
2020-11-13 02:00:00 10.5 24 Sur 35 Sudeste 0 918.5 -- 43
2020-11-13 01:00:00 14.1 17 Sur 32 Sur 0 919.1 -- 26
2020-11-13 00:00:00 11.9 14 Sur 28 Sudeste 0 919.4 -- 45
2020-11-12 23:00:00 10.7 14 Sudeste 23 Sudeste 0 919.6 -- 59
2020-11-12 22:00:00 9.4 2 Sur 16 Sudeste 0 919.3 -- 71
2020-11-12 21:00:00 9.4 0 Calma 24 Sudeste 0 919.2 -- 78
2020-11-12 20:00:00 10.8 2 Sudoeste 31 Sudeste 0 919.5 -- 76
2020-11-12 19:00:00 11.7 14 Sur 26 Sudeste 0 919.4 -- 70
2020-11-12 18:00:00 12.8 10 Sudeste 20 Sudeste 0 919.3 -- 64
2020-11-12 17:00:00 15.1 5 Sudeste 22 Sur 0 918.8 -- 54
2020-11-12 16:00:00 15.9 9 Sur 32 Sur 0 919 -- 53
2020-11-12 15:00:00 15.9 18 Sur 33 Sur 0 919.4 -- 55
2020-11-12 14:00:00 15.5 17 Sur 30 Sur 0 919.8 -- 54
2020-11-12 13:00:00 15.4 15 Sur 26 Sur 0 920.8 -- 49
2020-11-12 12:00:00 15.1 9 Sur 24 Sudeste 0 921.4 -- 53
2020-11-12 11:00:00 12.5 9 Sur 19 Sur 0 921.7 -- 62
2020-11-12 10:00:00 11 2 Noroeste 6 Norte 0 921.8 -- 72
2020-11-12 09:00:00 8.3 3 Noroeste 8 Oeste 0 921.8 -- 89
2020-11-12 08:00:00 6.2 4 Oeste 7 Noroeste 0 921.4 -- 92
2020-11-12 07:00:00 5.9 5 Oeste 9 Noroeste 0 921.2 -- 92
2020-11-12 06:00:00 5.9 3 Oeste 8 Oeste 0 921.4 -- 93
2020-11-12 05:00:00 4.3 4 Oeste 6 Oeste 0 921.5 -- 92
2020-11-12 04:00:00 6.6 2 Sudoeste 6 Oeste 0 921.5 -- 87
2020-11-12 03:00:00 6.9 3 Oeste 6 Noroeste 0 921.7 -- 88
2020-11-12 02:00:00 6.6 0 Calma 7 Oeste 0 921.8 -- 87
2020-11-12 01:00:00 7.8 2 Oeste 11 Sudeste 0 921.8 -- 85
2020-11-12 00:00:00 8.6 3 Sur 19 Sur 0 922 -- 78
2020-11-11 23:00:00 9.3 12 Sur 19 Sur 0 922.1 -- 74
2020-11-11 22:00:00 8.8 4 Noroeste 14 Sudeste 0 921.5 -- 69
2020-11-11 21:00:00 10 6 Sur 27 Sur 0 920.6 -- 59
2020-11-11 20:00:00 9.6 3 Sudoeste 31 Sur 0 920.7 -- 59
2020-11-11 19:00:00 9.8 18 Sudeste -- -- -- 920.1 -- 62
2020-11-11 18:00:00 10.7 17 Sur 44 Sur 0 919.8 -- 53
2020-11-11 17:00:00 10.8 21 Sur 41 Sur 0 919.4 -- 52
2020-11-11 16:00:00 12.2 21 Sudoeste 51 Sudoeste 0 919.7 -- 51
2020-11-11 15:00:00 14.3 17 Sudoeste -- -- -- 919.6 -- 48
2020-11-11 14:00:00 -- 21 Sur 46 Sudeste -- -- -- --
2020-11-11 13:00:00 12.2 21 Sur 53 Sur 0 920.7 -- 62
2020-11-11 12:00:00 10.6 25 Sur 53 Sur 0 921.1 -- 67
2020-11-11 11:00:00 9.6 27 Sur -- -- -- 921.7 -- 71
2020-11-11 10:00:00 7.4 19 Sudeste 41 Sudeste 0 922.3 -- 78
2020-11-11 09:00:00 6.1 27 Sur 38 Sur 0 922.3 -- 80
2020-11-11 08:00:00 5.4 17 Sur 37 Sur 0 922.5 -- 83
2020-11-11 07:00:00 5.2 17 Sur 33 Sur 0 922.7 -- 84
2020-11-11 06:00:00 3.9 5 Noroeste 19 Oeste 0 922.8 -- 78
2020-11-11 05:00:00 4.4 7 Oeste 35 Sur 0 923.1 -- 78
2020-11-11 04:00:00 3.6 3 Sudoeste 26 Sur 0 923.7 -- 85
2020-11-11 03:00:00 1.2 6 Noroeste 17 Noroeste 0 924.3 -- 93
2020-11-11 02:00:00 1 2 Oeste 11 Oeste 0 925 -- 94
2020-11-11 01:00:00 0.1 8 Oeste 10 Oeste 0 925.5 -- 94
2020-11-11 00:00:00 0.6 4 Noroeste 6 Oeste 0 925.8 -- 93
2020-11-10 23:00:00 1.4 3 Noroeste 6 Oeste 0 926.2 -- 94
2020-11-10 22:00:00 2.6 3 Sudoeste 7 Oeste 0 926.4 -- 93
2020-11-10 21:00:00 2.4 4 Noroeste 6 Oeste 0 926.1 -- 94
2020-11-10 20:00:00 5.1 5 Oeste 9 Sur 0 926 -- 91
2020-11-10 19:00:00 7.6 9 Sur 17 Sur 0 925.9 -- 84
2020-11-10 18:00:00 8.3 12 Sudeste 23 Sudeste 0 925.9 -- 80
2020-11-10 17:00:00 10.4 14 Sudeste 21 Sudeste 0 925.8 -- 73
2020-11-10 16:00:00 10.8 16 Sur 23 Sudeste 0 925.8 -- 69
2020-11-10 15:00:00 11.8 15 Sudeste 24 Sudeste 0 925.7 -- 67
2020-11-10 14:00:00 11.6 14 Sur 22 Sudeste 0 926.3 -- 67
2020-11-10 13:00:00 11.2 11 Sudeste 20 Sudeste 0 926.9 -- 69
2020-11-10 12:00:00 10.2 10 Sudeste 18 Sudeste 0 927.3 -- 73
2020-11-10 11:00:00 10.3 2 Sudoeste 10 Oeste 0 927.3 -- 74
2020-11-10 10:00:00 8.9 5 Oeste 8 Oeste 0 926.9 -- 86
2020-11-10 09:00:00 6.5 2 Oeste 9 Oeste 0 926.4 -- 91
2020-11-10 08:00:00 5.7 4 Oeste 9 Noroeste 0 925.9 -- 89
2020-11-10 07:00:00 6.2 2 Sudoeste 7 Oeste 0 925.7 -- 90
2020-11-10 06:00:00 6.1 5 Oeste 11 Oeste 0 925.7 -- 91
2020-11-10 05:00:00 4.9 6 Oeste 9 Oeste 0 925.1 -- 95
2020-11-10 04:00:00 2.4 4 Noroeste 7 Oeste 0 925.3 -- 95
2020-11-10 03:00:00 2.4 2 Noroeste 4 Noroeste 0 925.3 -- 94
2020-11-10 02:00:00 3 0 Calma 3 Noroeste 0 924.9 -- 94
2020-11-10 01:00:00 4.7 3 Sudoeste 8 Oeste 0 924.8 -- 93
2020-11-10 00:00:00 5.3 3 Sudoeste 9 Sudoeste 0 924.7 -- 90
2020-11-09 23:00:00 5.9 3 Sudoeste 10 Oeste 0 924.6 -- 91
2020-11-09 22:00:00 6.2 4 Oeste 7 Oeste 0 924.1 -- 89
2020-11-09 21:00:00 9.2 0 Calma 9 Sudeste 0 923.7 -- 83
2020-11-09 20:00:00 10.4 5 Sudeste 22 Este 0 923.5 -- 78
2020-11-09 19:00:00 11.2 12 Este -- -- 0 923 -- 76
2020-11-09 18:00:00 11.8 14 Este 18 Este 0 922.1 -- 71
2020-11-09 17:00:00 13.1 3 Norte 23 Sudoeste 0 921.4 -- 64
2020-11-09 16:00:00 14.1 12 Sudoeste 28 Sur 0 920.9 -- 57
2020-11-09 15:00:00 14.4 16 Sur 32 Sur 0 920.4 -- 58
2020-11-09 14:00:00 14.8 15 Sur 34 Sur 0 920.5 -- 56
2020-11-09 13:00:00 14 15 Sur 28 Sur 0 920.6 -- 58
2020-11-09 12:00:00 14.2 13 Sudoeste 30 Sudoeste 0 920.9 -- 56
2020-11-09 11:00:00 12.7 13 Sudoeste 28 Sudoeste 0 920.7 -- 62
2020-11-09 10:00:00 11.7 10 Sur 23 Sur 0 920.4 -- 66
2020-11-09 09:00:00 10.1 12 Sudoeste 26 Sur 0 920.2 -- 70
2020-11-09 08:00:00 8.9 9 Sur 19 Sur 0 919.7 -- 76
2020-11-09 07:00:00 8.4 17 Sur 26 Sur 0 919 -- 84
2020-11-09 06:00:00 9.4 9 Sudoeste 20 Sudoeste 0 918.8 -- 73
2020-11-09 05:00:00 9.9 15 Sudoeste 29 Sudoeste 0 918.4 -- 77
2020-11-09 04:00:00 9.8 11 Sudoeste 35 Sudoeste 0 918.3 -- 78
2020-11-09 03:00:00 10.1 15 Sudoeste 33 Sudoeste 0 918.4 -- 82
2020-11-09 02:00:00 9.8 16 Sur 28 Sur 0 918.5 -- 84
2020-11-09 01:00:00 10.2 19 Sur 37 Sur 0 918.8 -- 78
2020-11-09 00:00:00 10.5 17 Sudoeste 44 Sudoeste 0 918.9 -- 77
2020-11-08 23:00:00 10.5 18 Sudoeste 59 Sur 0 918.8 -- 78
2020-11-08 22:00:00 10.9 25 Sur 52 Sur 0 918.5 -- 78
2020-11-08 21:00:00 11 13 Sudoeste 36 Sur 0 919 -- 78
2020-11-08 20:00:00 12.1 10 Sudoeste 46 Sur 0 918.4 -- 74
2020-11-08 19:00:00 11.7 22 Sur -- -- -- 917.8 -- 78
2020-11-08 18:00:00 11.2 14 Sur 36 Sur 0 917.9 -- 78
2020-11-08 17:00:00 11 14 Sudoeste 36 Sur 0 917.7 -- 78
2020-11-08 16:00:00 11.4 15 Sudoeste 40 Sur 0 917.9 -- 78
2020-11-08 15:00:00 11 18 Sur 49 Sur 0.2 918.2 -- 85
2020-11-08 14:00:00 11.1 31 Sur 51 Sur 0 917.9 -- 78
2020-11-08 13:00:00 13.9 24 Sudoeste 58 Sudoeste 0 918.5 -- 65
2020-11-08 12:00:00 13.2 21 Sudoeste 53 Sur 0 919.2 -- 64
2020-11-08 11:00:00 12.5 11 Sudoeste 36 Sudoeste 0 919.5 -- 68
2020-11-08 10:00:00 11.3 19 Sudoeste 50 Sudoeste 0 919.5 -- 74
2020-11-08 09:00:00 10.4 26 Sudoeste 49 Sudoeste 0 918.8 -- 76
2020-11-08 08:00:00 10.2 16 Sudoeste 40 Sur 0 919.2 -- 78
2020-11-08 07:00:00 9.9 21 Sudoeste 47 Sudoeste 0 919.1 -- 83
2020-11-08 06:00:00 10 16 Sudoeste 37 Sudoeste 0 919.2 -- 82
2020-11-08 05:00:00 10.5 13 Sur 35 Sudoeste 0 919.1 -- 76
2020-11-08 04:00:00 10.6 10 Sur 41 Sur 0 919.6 -- 77
2020-11-08 03:00:00 10.8 13 Sudoeste 28 Sur 0 919.7 -- 77
2020-11-08 02:00:00 10.8 15 Sudoeste 41 Sudoeste 0 919.9 -- 76
2020-11-08 01:00:00 10.6 17 Sudoeste 35 Sudoeste 0 919.9 -- 76
2020-11-08 00:00:00 11.4 13 Sur 30 Sur 0 919.9 -- 74
2020-11-07 23:00:00 11.5 12 Sudoeste 31 Sur 0 919.9 -- 72
2020-11-07 22:00:00 11.8 10 Sudoeste 41 Oeste 0 919.5 -- 64
2020-11-07 21:00:00 12.3 13 Sudoeste 35 Oeste 0 919 -- 61
2020-11-07 20:00:00 12.2 8 Sudoeste 25 Sudoeste 0 918.7 -- 63
2020-11-07 19:00:00 12.2 10 Sudoeste 22 Sudoeste 0 918 -- 62
2020-11-07 18:00:00 12.2 0 Calma 20 Sudoeste 0 916.9 -- 58
2020-11-07 17:00:00 13.5 15 Sudoeste 36 Sudoeste 0 916.7 -- 52
2020-11-07 16:00:00 13.2 17 Sudoeste 37 Sudoeste 0 915.6 -- 57
2020-11-07 15:00:00 13.7 17 Sudoeste 37 Sudoeste 0 915.3 -- 59
2020-11-07 14:00:00 13.2 15 Sudoeste 32 Sur 0 915 -- 68
2020-11-07 13:00:00 13.4 12 Sudoeste 38 Oeste 0 915.1 -- 69
2020-11-07 12:00:00 12.5 7 Sudoeste 36 Sur 0 914.9 -- 72
2020-11-07 11:00:00 11.3 21 Sur 37 Sur 0 914.2 -- 84
2020-11-07 10:00:00 11.1 12 Sur 36 Sur 0 913.9 -- 83
2020-11-07 09:00:00 11.6 18 Sur 43 Sur 0 913.4 -- 77
2020-11-07 08:00:00 11.1 12 Sudoeste 34 Sudoeste 0 912.6 -- 78
2020-11-07 07:00:00 10.9 19 Sur 39 Sur 0 912.9 -- 78
2020-11-07 06:00:00 11.2 26 Sur 49 Sur 0 912.3 -- 82
2020-11-07 05:00:00 11.6 22 Sur 44 Sudoeste 0 912.4 -- 89
2020-11-07 04:00:00 12.6 28 Sur 47 Sur 0 912.8 -- 78
2020-11-07 03:00:00 13 30 Sur 68 Sur 0 912.2 -- 75
2020-11-07 02:00:00 13.8 39 Sur 66 Sur 0 911.6 -- 68
2020-11-07 01:00:00 13.9 31 Sur 53 Sur 0 912.1 -- 71
2020-11-07 00:00:00 12.4 31 Sur 53 Sur 0 912.4 -- 76
2020-11-06 23:00:00 11.8 25 Sur 95 Sur 0 913.2 -- 77
2020-11-06 22:00:00 14 23 Sur 41 Sur 0 913.7 -- 75
2020-11-06 21:00:00 13 13 Sur 27 Sudeste 0 912.6 -- 83
2020-11-06 20:00:00 12.6 15 Sur 32 Sur 0 913.1 -- 84
2020-11-06 19:00:00 12.6 22 Sur -- -- 0 913.6 -- 83
2020-11-06 18:00:00 12.9 21 Sudeste 38 Sudeste 0 913.5 -- 82
2020-11-06 17:00:00 13.4 25 Sur 49 Sur 0 913.9 -- 78
2020-11-06 16:00:00 13.8 27 Sur 43 Sur 0 914.3 -- 75
2020-11-06 15:00:00 14.2 22 Sur 41 Sur 0 915 -- 73
2020-11-06 14:00:00 14.5 17 Sur 31 Sur 0 915.8 -- 72
2020-11-06 13:00:00 14.3 16 Sudeste 33 Sur 0 917.2 -- 71
2020-11-06 12:00:00 13.2 20 Sur 42 Sur 0 918 -- 77
2020-11-06 11:00:00 11.9 16 Sur 26 Sur 0 918.5 0.5 84
2020-11-06 10:00:00 11 18 Sur 26 Sudeste 0 919 -- 86
2020-11-06 09:00:00 10.5 11 Sur 26 Sur 0 918.6 -- 86
2020-11-06 08:00:00 10 16 Sudeste 27 Sur 0 918 -- 87
2020-11-06 07:00:00 10 15 Sur 29 Sur 0 918.1 -- 87
2020-11-06 06:00:00 10 16 Sudeste 27 Sur 0 918.1 -- 87
2020-11-06 05:00:00 9.8 13 Sur 26 Sudeste 0 918 -- 87
2020-11-06 04:00:00 9.8 10 Sur 23 Sur 0 917.9 -- 89
2020-11-06 03:00:00 9.8 17 Sudeste 27 Sur 0 918.2 -- 89
2020-11-06 02:00:00 9.8 18 Sudeste 30 Sudeste 0 918.6 -- 89
2020-11-06 01:00:00 10 18 Sur 31 Sur 0 919 -- 89
2020-11-06 00:00:00 9.9 7 Sudeste 14 Sudeste 0 919.2 -- 90
2020-11-05 23:00:00 9.5 6 Sudeste 12 Sudeste 0 920.4 -- 86
2020-11-05 22:00:00 9.8 5 Sur 16 Sudeste 0 920.8 -- 82
2020-11-05 21:00:00 9.7 10 Sudeste 18 Sur 0 920.9 -- 78
2020-11-05 20:00:00 10.2 8 Sur 18 Sur 0 920.7 -- 75
2020-11-05 19:00:00 10.1 4 Sudeste -- -- 0 920.7 -- 71
2020-11-05 18:00:00 11.1 3 Sur 14 Este 0 920.7 -- 64
2020-11-05 17:00:00 12.2 9 Este 23 Este 0 920.7 -- 61
2020-11-05 16:00:00 12.8 14 Este 24 Este 0 920.8 -- 56
2020-11-05 15:00:00 13.8 17 Este 25 Este 0 921 -- 52
2020-11-05 14:00:00 13.6 16 Este 24 Este 0 921.4 -- 56
2020-11-05 13:00:00 12.6 12 Este 20 Este 0 922.3 -- 59
2020-11-05 12:00:00 10.7 4 Sur 19 Sudeste 0 923.6 -- 67
2020-11-05 11:00:00 9.5 4 Noroeste 9 Norte 0 923.8 -- 76
2020-11-05 10:00:00 8.2 0 Calma 13 Nordeste 0 924.6 -- 78
2020-11-05 09:00:00 7.4 3 Noroeste 13 Noroeste 0 924.3 -- 84
2020-11-05 08:00:00 6.7 5 Oeste 12 Noroeste 0 924 -- 86
2020-11-05 07:00:00 6.3 3 Norte 15 Noroeste 0 924 -- 85
2020-11-05 06:00:00 6.1 4 Noroeste 11 Noroeste 0 924.3 -- 85
2020-11-05 05:00:00 5.6 4 Norte 11 Norte 0 924.5 -- 84
2020-11-05 04:00:00 5.2 4 Noroeste 7 Noroeste 0 924.3 -- 84
2020-11-05 03:00:00 4.7 2 Norte 8 Nordeste 0 924.9 -- 87
2020-11-05 02:00:00 4.6 3 Norte 12 Norte 0 924.8 -- 86
2020-11-05 01:00:00 4.7 5 Norte 9 Noroeste 0 924.9 -- 78
2020-11-05 00:00:00 4.6 2 Norte 9 Noroeste 0 925.2 -- 83
2020-11-04 23:00:00 4.6 6 Noroeste 9 Norte 0 925 -- 84
2020-11-04 22:00:00 4.8 5 Norte 11 Norte 0 924.9 -- 82
2020-11-04 21:00:00 4.2 8 Noroeste 14 Noroeste 0 924.8 -- 83
2020-11-04 20:00:00 3.8 3 Norte 22 Norte 0 924.5 -- 82
2020-11-04 19:00:00 4.7 9 Norte 26 Norte 0 923.8 -- 76
2020-11-04 18:00:00 4.6 6 Nordeste 29 Nordeste 0 923.3 -- 83
2020-11-04 17:00:00 5 9 Norte 26 Nordeste 0 922.6 -- 78
2020-11-04 16:00:00 6.2 9 Norte 30 Norte 0 922.3 -- 71
2020-11-04 15:00:00 6.7 8 Nordeste 27 Nordeste 0 922.4 -- 72
2020-11-04 14:00:00 6.4 8 Nordeste 25 Nordeste 0 922.7 -- 75
2020-11-04 13:00:00 6.3 8 Nordeste 24 Nordeste 0 923.4 -- 78
2020-11-04 12:00:00 5.5 9 Nordeste 24 Nordeste 0 923.8 -- 78
2020-11-04 11:00:00 5.7 13 Nordeste 23 Nordeste 0 924 0.3 77
2020-11-04 10:00:00 5.5 5 Nordeste 12 Este 0 923.8 -- 85
2020-11-04 09:00:00 3.8 3 Noroeste 11 Nordeste 0 923.9 -- 91
2020-11-04 08:00:00 3.4 0 Calma 14 Noroeste 0 923.7 -- 90
2020-11-04 07:00:00 3.2 7 Noroeste 13 Noroeste 0 924 -- 89
2020-11-04 06:00:00 3.3 8 Noroeste 12 Norte 0 924.5 -- 90
2020-11-04 05:00:00 3.8 6 Norte 14 Norte 0 925 -- 86
2020-11-04 04:00:00 3.5 5 Norte 14 Norte 0 925.5 -- 84
2020-11-04 03:00:00 3.6 8 Norte 16 Norte 0 926.1 -- 79
2020-11-04 02:00:00 3.5 4 Norte 17 Norte 0 926.8 -- 82
2020-11-04 01:00:00 3.8 2 Nordeste 13 Nordeste 0 927.4 -- 88
2020-11-04 00:00:00 4.2 4 Nordeste 21 Norte 0 928.4 -- 84
2020-11-03 23:00:00 4.2 9 Norte 19 Noroeste 0 928.9 -- 86
2020-11-03 22:00:00 4.6 10 Noroeste 18 Noroeste 0 929.1 -- 85
2020-11-03 21:00:00 4.3 13 Norte 23 Norte 0 929.6 -- 79
2020-11-03 20:00:00 4.7 12 Noroeste 22 Noroeste 0 929.6 -- 89
2020-11-03 19:00:00 5 9 Noroeste 22 Norte 0 929.7 -- 89
2020-11-03 18:00:00 5.7 13 Noroeste 26 Noroeste 0 929.7 -- 82
2020-11-03 17:00:00 5.9 13 Noroeste 30 Noroeste 0 929.5 -- 79
2020-11-03 16:00:00 7.1 15 Noroeste 36 Norte 0 929.5 -- 78
2020-11-03 15:00:00 8.1 14 Norte 30 Noroeste 0 929.3 -- 76
2020-11-03 14:00:00 8.1 12 Noroeste 33 Noroeste 0 929.6 -- 78
2020-11-03 13:00:00 8.7 11 Noroeste 33 Norte 0 929.3 -- 78
2020-11-03 12:00:00 8.6 18 Norte 28 Noroeste 0 929.6 -- 76
2020-11-03 11:00:00 8.5 19 Norte 31 Norte 0 929.2 -- 68
2020-11-03 10:00:00 8.5 15 Noroeste 26 Noroeste 0 928.7 -- 61
2020-11-03 09:00:00 7.2 14 Norte 29 Norte 0 928.1 -- 62
2020-11-03 08:00:00 6.5 21 Noroeste 39 Noroeste 0 927.3 -- 65
2020-11-03 07:00:00 7.2 3 Nordeste 28 Noroeste 0 926.9 -- 69
2020-11-03 06:00:00 7.4 21 Noroeste 33 Noroeste 0 926.8 -- 75
2020-11-03 05:00:00 8.1 12 Norte 21 Noroeste 0 926.3 -- 82
2020-11-03 04:00:00 8.2 4 Norte 18 Noroeste 0 926 -- 83
2020-11-03 03:00:00 8.5 8 Norte 17 Noroeste 0 926.1 -- 86
2020-11-03 02:00:00 8.1 0 Calma 8 Este 0 925.6 -- 93
2020-11-03 01:00:00 8.3 2 Este 10 Este 0 925.5 -- 94
2020-11-03 00:00:00 8.3 5 Este 9 Este 0 925.3 -- 94
2020-11-02 23:00:00 8.9 0 Calma 6 Nordeste 0 925.2 -- 94
2020-11-02 22:00:00 9 3 Nordeste 8 Nordeste 0 925.1 -- 94
2020-11-02 21:00:00 9.1 4 Nordeste 10 Este 0 924.9 -- 94
2020-11-02 20:00:00 9.3 4 Nordeste 12 Este 0 924.7 -- 94
2020-11-02 19:00:00 9.6 5 Nordeste 19 Nordeste 0.6 924.2 -- 94
2020-11-02 18:00:00 9.9 7 Nordeste 19 Nordeste 0 923.9 -- 94
2020-11-02 17:00:00 10.7 10 Nordeste 19 Nordeste 0 923.2 -- 91
2020-11-02 16:00:00 12 15 Nordeste -- -- 0 922.6 -- 92
2020-11-02 15:00:00 13.2 17 Nordeste 30 Nordeste 0 922.1 -- 91
2020-11-02 14:00:00 20 9 Sur 23 Sur 0 921.5 -- 55
2020-11-02 13:00:00 18.2 13 Sur 27 Sudoeste 0 921.7 -- 56
2020-11-02 12:00:00 17.4 12 Sudoeste 33 Sur 0 922.1 -- 63
2020-11-02 11:00:00 16.2 12 Sur 28 Sudoeste 0 921.9 -- 69
2020-11-02 10:00:00 15.5 9 Sur 23 Sur 0 922 -- 71
2020-11-02 09:00:00 11.9 0 Calma 26 Sur 0 921.3 -- 78
2020-11-02 08:00:00 12.6 15 Sur 26 Sudoeste 0 920.8 -- 84
2020-11-02 07:00:00 13.8 14 Sudoeste 39 Sur 0 920.4 -- 78
2020-11-02 06:00:00 14.1 19 Sur 33 Sur 0 920.5 -- 77
2020-11-02 05:00:00 13.8 6 Sudoeste 32 Sudoeste 0 920.1 -- 80
2020-11-02 04:00:00 13.5 4 Sudoeste 22 Sur 0 920 -- 84
2020-11-02 03:00:00 13.8 2 Sur 40 Sur 0 920.7 -- 82
2020-11-02 02:00:00 14.2 29 Sur 48 Sur 0 920.1 -- 78
2020-11-02 01:00:00 15 25 Sur 54 Sudeste 0 921 -- 75
2020-11-02 00:00:00 15.4 22 Sur 47 Sur 0 921.2 -- 72
2020-11-01 23:00:00 14.7 24 Sur 44 Sur 0 921.3 -- 76
2020-11-01 22:00:00 14.7 23 Sur 46 Sudoeste 0 921.5 -- 75
2020-11-01 21:00:00 14.4 19 Sudoeste 37 Sudeste 0 921.4 -- 77
2020-11-01 20:00:00 14 21 Sur 36 Sur 0 921.4 -- 78
2020-11-01 19:00:00 13.8 23 Sur 44 Sur 0 921.6 -- 79
2020-11-01 18:00:00 -- -- -- -- -- -- -- -- --
2020-11-01 17:00:00 15.2 18 Sur 33 Sudoeste 0 922 -- 75
2020-11-01 16:00:00 16.8 13 Sur 28 Sur 0 922.1 -- 70
2020-11-01 15:00:00 17.5 14 Sur 31 Sur 0 922.5 -- 67
2020-11-01 14:00:00 16.8 15 Sudeste 27 Sudeste 0 922.6 -- 73
2020-11-01 13:00:00 14.7 16 Sudeste 26 Sur 0 923.2 -- 77
2020-11-01 12:00:00 14.9 14 Sudeste 26 Sudeste 0 923.7 -- 77
2020-11-01 11:00:00 14.2 12 Sudeste 30 Sudeste 0 923.8 -- 78
2020-11-01 10:00:00 13.2 17 Sudeste 33 Sur 0 923.8 -- 81
2020-11-01 09:00:00 12 22 Sudeste 33 Sudeste 0 923.1 -- 86
2020-11-01 08:00:00 12.1 15 Sudeste 27 Sudeste 0 922.6 -- 78
2020-11-01 07:00:00 13.2 13 Sudeste 24 Sudeste 0 922.4 -- 74
2020-11-01 06:00:00 12.1 0 Calma 34 Sudoeste 0 922.2 -- 77
2020-11-01 05:00:00 13.1 8 Sur 23 Sur 0 922.4 -- 73
2020-11-01 04:00:00 12.7 4 Sudoeste 27 Sudeste 0 922.5 -- 76
2020-11-01 03:00:00 12.5 2 Noroeste 25 Sudeste 0 922.8 -- 76
2020-11-01 02:00:00 12.9 19 Sudeste 33 Sudeste 0 923 -- 77
2020-11-01 01:00:00 13.9 7 Sudoeste 32 Sudoeste 0 923.4 -- 67
2020-11-01 00:00:00 10.6 5 Sudoeste 22 Sudeste 0 923.5 -- 74
2020-10-31 23:00:00 9.5 3 Nordeste 10 Oeste 0 922.9 -- 83
2020-10-31 22:00:00 10.4 4 Oeste 16 Sur 0 923.1 -- 76
2020-10-31 21:00:00 8.5 2 Noroeste 9 Noroeste 0 923.1 -- 91
2020-10-31 20:00:00 9.7 5 Oeste 19 Sur 0 923.3 -- 86
2020-10-31 19:00:00 13 12 Sur 33 Sudeste 0 923.1 -- 77
2020-10-31 18:00:00 13.4 17 Sur 91 Sudeste 0 923.3 -- 76
2020-10-31 17:00:00 14.9 22 Sur 37 Sur 0 922.9 -- 71
2020-10-31 16:00:00 15.3 22 Sur 42 Sur 0 922.6 -- 71
2020-10-31 15:00:00 16.1 27 Sur 40 Sur 0 922.9 -- 68
2020-10-31 14:00:00 16.3 18 Sur 39 Sudeste 0 923.7 -- 66
2020-10-31 13:00:00 15.7 15 Sur 52 Sur 0 923.6 -- 65
2020-10-31 12:00:00 15.9 19 Sur 40 Sur 0 923.5 -- 58
2020-10-31 11:00:00 15.5 21 Sur 40 Sur 0 923.4 -- 61
2020-10-31 10:00:00 15.1 20 Sur 36 Sur 0 923.4 -- 59
2020-10-31 09:00:00 11.5 22 Sur 35 Sur 0 923.6 -- 76
2020-10-31 08:00:00 11.3 16 Sur 25 Oeste 0 923.7 -- 71
2020-10-31 07:00:00 12.6 8 Sudoeste 30 Oeste 0 923.6 -- 68
2020-10-31 06:00:00 13.5 12 Sudoeste 32 Sur 0 923.5 -- 59
2020-10-31 05:00:00 14.3 16 Oeste 31 Oeste 0 923.4 -- 59
2020-10-31 04:00:00 14.4 4 Sudoeste 25 Sudoeste 0 923.3 -- 57
2020-10-31 03:00:00 14 17 Sur 35 Sur 0 923.2 -- 60
2020-10-31 02:00:00 13.4 15 Sudeste 27 Sur 0 923 -- 63
2020-10-31 01:00:00 13.4 8 Sudoeste 33 Sur 0 923.2 -- 61
2020-10-31 00:00:00 11.9 4 Sur 27 Sur 0 923.7 -- 54
2020-10-30 23:00:00 12.7 7 Sur 40 Sudoeste 0 924.2 -- 63
2020-10-30 22:00:00 13.7 20 Sur 43 Sur 0 924 -- 59
2020-10-30 21:00:00 11 2 Nordeste 15 Nordeste 0 923.8 -- 63
2020-10-30 20:00:00 11.6 0 Calma 22 Sudoeste 0 924 -- 65
2020-10-30 19:00:00 14.1 8 Sur 128 Sudeste 0 923.9 -- 57
2020-10-30 18:00:00 14.6 26 Sur 40 Sur 0 923.1 -- 56
2020-10-30 17:00:00 16.5 24 Sur 36 Sur 0 923.1 -- 48
2020-10-30 16:00:00 17.7 22 Sur 33 Sur 0 923.5 -- 42
2020-10-30 15:00:00 18.2 22 Sur 37 Sur 0 923.6 -- 41
2020-10-30 14:00:00 17.3 22 Sur 35 Sur 0 923.7 -- 47
2020-10-30 13:00:00 16.2 21 Sudeste 39 Sudeste 0 924.3 -- 52
2020-10-30 12:00:00 14.4 19 Sur 38 Sur 0 925 -- 54
2020-10-30 11:00:00 12.5 16 Sur 40 Sur 0 924.6 -- 60
2020-10-30 10:00:00 11.1 9 Sudoeste 23 Oeste 0 924.9 -- 63
2020-10-30 09:00:00 7.8 5 Sudoeste 21 Sudoeste 0 924.9 -- 79
2020-10-30 08:00:00 0.1 6 Oeste 13 Noroeste 0 924.7 -- 91
2020-10-30 07:00:00 -0.6 4 Oeste 10 Oeste 0 924.6 -- 94
2020-10-30 06:00:00 0.3 6 Noroeste 9 Noroeste 0 924.7 -- 94
2020-10-30 05:00:00 -0.4 6 Noroeste 14 Oeste 0 924.6 -- 94
2020-10-30 04:00:00 -0.5 6 Noroeste 13 Noroeste 0 924.4 -- 94
2020-10-30 03:00:00 0.9 3 Oeste 10 Oeste 0 924.7 -- 94
2020-10-30 02:00:00 1.6 5 Noroeste 10 Oeste 0 925 -- 94
2020-10-30 01:00:00 2.1 6 Oeste 10 Oeste 0 925.2 -- 94
2020-10-30 00:00:00 1.7 5 Oeste 9 Noroeste 0 925.2 -- 92
2020-10-29 23:00:00 4.9 4 Oeste 17 Sur 0 925.1 -- 90
2020-10-29 22:00:00 6.9 3 Sudoeste 23 Sur 0 925 -- 87
2020-10-29 21:00:00 10.4 10 Sur 24 Sur 0 924.9 -- 78
2020-10-29 20:00:00 11.7 13 Sur 26 Sur 0 924.7 -- 72
2020-10-29 19:00:00 12.5 17 Sur 28 Sudeste 0 924.4 -- 69
2020-10-29 18:00:00 13.3 13 Sudeste 27 Sur 0 923.8 -- 66
2020-10-29 17:00:00 15.3 14 Sur 25 Sur 0 923.9 -- 58
2020-10-29 16:00:00 16.3 14 Sur 25 Sur 0 923.6 -- 54
2020-10-29 15:00:00 17.7 11 Sur 22 Sur 0 923.7 -- 49
2020-10-29 14:00:00 16.5 13 Sudeste 31 Sur 0 924.3 -- 54
2020-10-29 13:00:00 14.6 3 Noroeste 8 Noroeste 0 924.9 -- 59
2020-10-29 12:00:00 12.3 3 Norte 12 Este 0 925.4 -- 70
2020-10-29 11:00:00 10.7 3 Sudeste 8 Nordeste 0 925.6 -- 75
2020-10-29 10:00:00 7.9 4 Nordeste 15 Sudeste 0 925.6 -- 89
2020-10-29 09:00:00 5.2 0 Calma 7 Norte 0 925.4 -- 94
2020-10-29 08:00:00 3.9 0 Calma 11 Sudeste 0 925.2 -- 93
2020-10-29 07:00:00 5.1 4 Oeste 27 Sudeste 0 924.4 -- 93
2020-10-29 06:00:00 3.7 6 Sur 9 Sur 0 925 -- 94
2020-10-29 05:00:00 3.2 0 Calma 4 Sur 0 925.2 -- 94
2020-10-29 04:00:00 2.4 4 Sur 5 Sur 0 924.9 -- 94
2020-10-29 03:00:00 2.8 2 Oeste 9 Sur 0 924.9 -- 94
2020-10-29 02:00:00 1.7 6 Noroeste 8 Noroeste 0 924.8 -- 94
2020-10-29 01:00:00 3.6 3 Sudoeste 9 Noroeste 0 924.8 -- 94
2020-10-29 00:00:00 3.8 0 Calma 8 Oeste 0 924.2 -- 94
2020-10-28 23:00:00 5.1 0 Calma 9 Sur 0 924 -- 94
2020-10-28 22:00:00 5.6 2 Sudoeste 4 Sudoeste 0 924.1 -- 93
2020-10-28 21:00:00 7.3 2 Sur 5 Sudeste 0 923.1 -- 87
2020-10-28 20:00:00 9.4 4 Sur 7 Sur 0 922.8 -- 83
2020-10-28 19:00:00 9.9 3 Sur 9 Sudeste 0 923 -- 83
2020-10-28 18:00:00 10 5 Sudoeste 13 Este 0 922 -- 78
2020-10-28 17:00:00 11.8 7 Este 16 Este 0 921.3 -- 77
2020-10-28 16:00:00 12.4 8 Nordeste 20 Nordeste 0 920.7 -- 74
2020-10-28 15:00:00 13.4 12 Nordeste 25 Nordeste 0 920.6 -- 72
2020-10-28 14:00:00 14.1 15 Este 26 Este 0 920.1 -- 67
2020-10-28 13:00:00 14.4 11 Nordeste 23 Este 0 920.3 -- 68
2020-10-28 12:00:00 13.1 10 Este 17 Este 0 920.4 -- 73
2020-10-28 11:00:00 11.2 8 Nordeste 18 Este 0 920.1 -- 83
2020-10-28 10:00:00 10.7 6 Este 14 Este 0 919.5 -- 88
2020-10-28 09:00:00 8.9 0 Calma 5 Norte 0 918.9 -- 94
2020-10-28 08:00:00 8.8 3 Sudeste 7 Oeste 0 918.2 -- 94
2020-10-28 07:00:00 7.6 0 Calma 12 Noroeste 0 917.8 -- 91
2020-10-28 06:00:00 9.1 5 Sudoeste 27 Sur 0 916.9 -- 83
2020-10-28 05:00:00 10.6 15 Sur 30 Sur 0 916.5 -- 87
2020-10-28 04:00:00 10.6 15 Sur 24 Sur 0 916.8 -- 86
2020-10-28 03:00:00 10.5 13 Sur 25 Sur 0 916.9 -- 85
2020-10-28 02:00:00 10.5 12 Sur 34 Sur 0 916.8 -- 84
2020-10-28 01:00:00 10 18 Sur 31 Sur 0 916.9 -- 86
2020-10-28 00:00:00 10.4 15 Sur 25 Sudoeste 0 916.9 -- 84
2020-10-27 23:00:00 10.3 8 Sur 26 Sudoeste 0 917.1 -- 83
2020-10-27 22:00:00 11 4 Sudoeste 38 Sudeste 0 916.9 -- 74
2020-10-27 21:00:00 10.6 13 Sudoeste 43 Sudoeste 0 916.3 -- 77
2020-10-27 20:00:00 10.4 16 Sudoeste 35 Sudoeste 0 916 -- 78
2020-10-27 19:00:00 10.8 15 Sudoeste 46 Oeste 0 916.1 -- 74
2020-10-27 18:00:00 11 10 Sudoeste 42 Oeste 0 915.4 -- 72
2020-10-27 17:00:00 10.4 26 Sudoeste 46 Sur 0 915 -- 73
2020-10-27 16:00:00 11.2 21 Sudoeste 43 Sur 0 914.5 -- 69
2020-10-27 15:00:00 12.4 18 Sudoeste 46 Sudoeste 0 914.5 -- 64
2020-10-27 14:00:00 11.3 13 Sur 30 Sur 0 914.7 -- 68
2020-10-27 13:00:00 11.3 13 Sur 25 Sur 0 915.1 -- 67
2020-10-27 12:00:00 9.6 12 Sudoeste 23 Sudeste 0 915.5 -- 71
2020-10-27 11:00:00 9.8 10 Sudoeste 27 Sur 0 915.5 -- 69
2020-10-27 10:00:00 9 12 Sudoeste 28 Oeste 0 915.3 -- 70
2020-10-27 09:00:00 8.2 10 Sur 28 Sur 0 915.1 -- 71
2020-10-27 08:00:00 7.3 12 Sudoeste 32 Sudoeste 0 914.6 -- 76
2020-10-27 07:00:00 6.7 5 Sur 17 Sur 0 915 -- 78
2020-10-27 06:00:00 4.5 0 Calma 11 Oeste 0 915.7 -- 87
2020-10-27 05:00:00 4.3 2 Este 8 Oeste 0 915.5 -- 89
2020-10-27 04:00:00 4.6 3 Noroeste 7 Oeste 0 916.3 -- 88
2020-10-27 03:00:00 3.6 3 Noroeste 6 Noroeste 0 916.7 -- 91
2020-10-27 02:00:00 3.5 3 Sur 7 Noroeste 0 917.1 -- 93
2020-10-27 01:00:00 2.2 5 Oeste 7 Noroeste 0 917.4 -- 93
2020-10-27 00:00:00 2.7 3 Noroeste 9 Sudoeste 0 917.8 -- 92